Time;durP1;ratioP1;P1;durP2;ratioP2;P2;SDS_P1;SDS_P2;PMS_P1;PMS_P2;Temp;Humidity;BMP_temperature;BMP_pressure;BME280_temperature;BME280_humidity;BME280_pressure;Samples;Min_cycle;Max_cycle;Signal;HPM_P1;HPM_P2
2022/02/11 00:08:46;;;;;;;6.78;3.95;;;;;;;24.52;20.02;98304.66;5001248;28;20099;-82
2022/02/11 00:11:15;;;;;;;6.10;3.75;;;;;;;23.97;20.65;98308.88;5007799;28;20029;-82
2022/02/11 00:13:41;;;;;;;8.27;4.35;;;;;;;23.88;20.70;98305.84;5014159;28;20045;-82
2022/02/11 00:16:07;;;;;;;6.18;3.55;;;;;;;24.18;20.54;98307.72;5006157;28;20092;-82
2022/02/11 00:18:33;;;;;;;5.97;3.70;;;;;;;23.98;20.58;98313.28;5004854;28;20038;-82
2022/02/11 00:21:00;;;;;;;6.80;4.30;;;;;;;22.38;22.80;98306.78;5002051;28;20478;-82
2022/02/11 00:23:26;;;;;;;8.00;4.00;;;;;;;23.13;21.80;98307.41;5006418;28;20077;-82
2022/02/11 00:25:58;;;;;;;7.47;4.30;;;;;;;23.08;21.83;98311.47;5003918;28;20037;-82
2022/02/11 00:33:37;;;;;;;8.27;5.05;;;;;;;23.56;21.05;98325.22;5002530;28;20552;-82
2022/02/11 00:36:07;;;;;;;9.13;5.00;;;;;;;23.18;21.67;98326.56;5014574;28;20042;-82
2022/02/11 00:38:48;;;;;;;9.10;4.82;;;;;;;22.71;22.50;98325.59;5001327;28;20748;-82
2022/02/11 00:47:07;;;;;;;10.63;4.28;;;;;;;24.35;20.46;98325.44;5005736;28;20112;-82
2022/02/11 01:03:28;;;;;;;12.32;5.63;;;;;;;22.91;23.22;98342.53;4998106;28;20064;-82
2022/02/11 01:05:54;;;;;;;8.65;5.07;;;;;;;23.79;22.29;98335.63;5002845;28;20026;-81
2022/02/11 01:08:20;;;;;;;11.52;5.72;;;;;;;24.00;22.04;98338.88;4998527;28;20052;-81
2022/02/11 01:10:46;;;;;;;10.02;6.32;;;;;;;24.36;21.52;98335.47;5001867;28;20482;-81
2022/02/11 01:13:13;;;;;;;10.48;5.63;;;;;;;24.95;20.65;98335.50;5002256;28;20034;-81
2022/02/11 01:15:44;;;;;;;10.52;4.85;;;;;;;25.23;20.36;98326.44;5002119;28;20031;-81
2022/02/11 01:18:12;;;;;;;7.78;4.90;;;;;;;25.54;19.90;98332.56;4997293;28;20030;-81
2022/02/11 01:23:37;;;;;;;9.77;5.30;;;;;;;25.37;20.11;98326.09;5001561;28;20057;-82
2022/02/11 01:40:10;;;;;;;6.43;4.07;;;;;;;26.73;18.34;98314.56;4996460;28;20034;-82
2022/02/11 01:53:05;;;;;;;5.38;3.63;;;;;;;26.31;18.53;98319.38;5007684;28;20512;-82
2022/02/11 02:01:02;;;;;;;7.65;3.95;;;;;;;26.02;18.96;98318.53;5008214;28;20046;-82
2022/02/11 02:14:28;;;;;;;4.38;2.67;;;;;;;27.11;18.13;98284.47;5011652;28;20044;-82
2022/02/11 02:17:48;;;;;;;7.53;3.78;;;;;;;26.93;17.96;98292.69;5006519;28;20056;-82
2022/02/11 02:22:47;;;;;;;7.35;3.75;;;;;;;26.45;18.20;98275.94;5007057;28;20049;-82
2022/02/11 02:25:26;;;;;;;6.60;3.67;;;;;;;25.89;18.94;98267.00;5009090;28;20076;-82
2022/02/11 02:57:43;;;;;;;6.25;3.75;;;;;;;25.75;19.29;98268.16;5007786;28;20056;-81
2022/02/11 03:17:23;;;;;;;6.60;3.97;;;;;;;26.17;18.77;98274.72;5009233;28;20143;-81
2022/02/11 03:52:31;;;;;;;9.05;4.60;;;;;;;25.33;19.64;98289.66;5008326;28;20180;-82
2022/02/11 04:20:27;;;;;;;8.00;4.43;;;;;;;26.50;18.22;98281.03;5004525;28;20069;-81
2022/02/11 05:00:11;;;;;;;5.55;2.92;;;;;;;27.08;17.43;98293.81;4997625;28;20044;-82
2022/02/11 05:02:38;;;;;;;9.63;4.07;;;;;;;26.45;17.81;98284.38;5013986;28;20061;-81
2022/02/11 05:05:08;;;;;;;6.40;3.35;;;;;;;26.68;17.87;98293.38;5014933;28;20109;-81
2022/02/11 05:07:35;;;;;;;6.00;3.30;;;;;;;26.39;18.11;98289.00;5014351;28;20494;-81
2022/02/11 05:10:02;;;;;;;6.88;3.72;;;;;;;26.55;18.27;98286.13;5028867;28;20044;-81
2022/02/11 05:12:28;;;;;;;9.23;4.45;;;;;;;26.94;17.89;98293.44;5015059;28;20026;-81
2022/02/11 05:14:54;;;;;;;5.57;3.88;;;;;;;27.30;17.48;98289.09;5013911;28;20030;-81
2022/02/11 05:17:20;;;;;;;3.90;2.80;;;;;;;27.38;17.37;98284.03;5007173;28;20108;-81
2022/02/11 05:19:46;;;;;;;5.45;3.00;;;;;;;27.36;17.50;98281.63;5006889;28;20061;-81
2022/02/11 05:22:13;;;;;;;3.58;2.78;;;;;;;27.53;17.57;98284.38;5017984;28;20389;-81
2022/02/11 05:24:39;;;;;;;6.15;2.65;;;;;;;27.67;17.47;98279.06;5016145;28;20038;-81
2022/02/11 05:27:05;;;;;;;4.70;2.35;;;;;;;27.99;17.06;98283.63;5021112;28;20076;-81
2022/02/11 05:29:31;;;;;;;4.55;2.60;;;;;;;28.05;16.88;98279.00;5016989;28;20813;-81
2022/02/11 05:31:57;;;;;;;5.38;3.20;;;;;;;27.74;17.28;98275.19;5008468;28;20408;-81
2022/02/11 05:34:23;;;;;;;3.83;2.30;;;;;;;27.94;17.03;98275.69;5008828;28;20096;-81
2022/02/11 05:36:49;;;;;;;4.45;2.95;;;;;;;28.02;17.00;98272.22;5007184;28;20030;-82
2022/02/11 05:39:16;;;;;;;4.95;2.85;;;;;;;28.03;16.83;98265.31;5008546;28;20543;-81
2022/02/11 05:41:42;;;;;;;6.78;3.42;;;;;;;27.79;16.84;98272.59;5003619;28;20061;-81
2022/02/11 05:44:08;;;;;;;4.60;2.63;;;;;;;27.56;17.43;98278.63;5000791;28;20031;-81
2022/02/11 05:46:34;;;;;;;3.40;2.42;;;;;;;27.65;17.35;98275.91;5004282;28;20677;-81
2022/02/11 05:49:00;;;;;;;5.50;2.53;;;;;;;27.77;17.20;98277.88;5000852;28;20120;-81
2022/02/11 05:51:27;;;;;;;3.53;2.10;;;;;;;28.04;16.94;98269.72;5007794;28;20054;-81
2022/02/11 05:53:53;;;;;;;3.92;2.38;;;;;;;28.18;16.80;98276.91;5011729;28;20034;-81
2022/02/11 05:56:19;;;;;;;7.32;2.22;;;;;;;28.35;16.47;98275.50;5013359;28;20030;-81
2022/02/11 05:58:45;;;;;;;4.50;2.42;;;;;;;28.19;16.88;98278.50;5011776;28;20033;-81
2022/02/11 06:01:11;;;;;;;3.97;2.58;;;;;;;28.21;16.65;98276.00;5019499;28;20027;-81
2022/02/11 06:03:37;;;;;;;5.18;3.10;;;;;;;28.18;16.83;98278.94;5005552;28;20037;-82
2022/02/11 06:06:03;;;;;;;3.83;1.90;;;;;;;27.60;17.24;98282.09;5008178;28;20037;-81
2022/02/11 06:08:29;;;;;;;3.85;2.20;;;;;;;27.34;17.55;98272.84;5012333;28;20050;-81
2022/02/11 06:10:55;;;;;;;4.95;2.35;;;;;;;27.12;17.95;98274.75;5005293;28;20376;-82
2022/02/11 06:13:22;;;;;;;3.08;2.20;;;;;;;27.30;17.74;98277.81;5007608;28;20041;-83
2022/02/11 06:15:48;;;;;;;4.10;2.08;;;;;;;27.20;18.09;98276.13;5005791;28;20041;-80
2022/02/11 06:18:14;;;;;;;3.47;1.90;;;;;;;27.06;17.77;98282.19;5011513;28;20515;-82
2022/02/11 06:20:41;;;;;;;3.92;2.22;;;;;;;26.99;18.00;98282.41;5009581;28;20041;-80
2022/02/11 06:23:08;;;;;;;4.60;2.28;;;;;;;27.09;17.82;98283.31;5014479;28;20112;-81
2022/02/11 06:25:34;;;;;;;4.90;2.72;;;;;;;27.46;17.62;98288.22;5008249;28;20049;-81
2022/02/11 06:28:00;;;;;;;3.83;2.20;;;;;;;27.69;17.46;98278.59;5013187;28;20022;-81
2022/02/11 06:30:26;;;;;;;6.95;2.42;;;;;;;27.61;17.21;98288.53;5006745;28;20100;-81
2022/02/11 06:32:53;;;;;;;4.60;2.42;;;;;;;27.61;17.23;98282.91;5009986;28;20067;-81
2022/02/11 06:35:19;;;;;;;4.13;2.47;;;;;;;27.84;17.18;98280.47;5021377;28;20022;-82
2022/02/11 06:37:46;;;;;;;5.45;2.70;;;;;;;28.05;16.95;98276.19;5015937;28;20112;-82
2022/02/11 06:40:14;;;;;;;4.57;2.30;;;;;;;28.29;16.85;98282.16;5016771;28;20030;-82
2022/02/11 06:42:41;;;;;;;4.20;2.13;;;;;;;28.26;17.05;98285.94;5015806;28;20034;-81
2022/02/11 06:45:08;;;;;;;6.30;2.53;;;;;;;27.72;17.46;98281.31;5018780;28;20026;-81
2022/02/11 06:47:34;;;;;;;3.80;2.05;;;;;;;27.08;17.89;98287.38;5008650;28;20062;-81
2022/02/11 06:50:00;;;;;;;5.07;2.25;;;;;;;26.59;18.49;98283.97;5017996;28;20486;-81
2022/02/11 06:52:26;;;;;;;4.20;2.30;;;;;;;26.40;18.66;98273.66;5012911;28;20057;-82
2022/02/11 06:54:52;;;;;;;4.47;2.55;;;;;;;26.65;18.64;98279.41;5011609;28;20427;-82
2022/02/11 06:57:19;;;;;;;2.85;2.00;;;;;;;27.09;18.24;98267.22;5009775;28;20029;-81
2022/02/11 06:59:45;;;;;;;2.83;1.88;;;;;;;27.40;17.89;98261.81;5018581;28;20046;-82
2022/02/11 07:02:18;;;;;;;2.20;1.70;;;;;;;27.64;17.54;98268.66;5012856;28;20052;-80
2022/02/11 07:04:44;;;;;;;4.50;2.30;;;;;;;27.71;17.36;98276.91;5016781;28;20087;-81
2022/02/11 07:07:11;;;;;;;2.95;1.70;;;;;;;27.16;18.18;98278.28;5016820;28;20475;-82
2022/02/11 07:09:37;;;;;;;3.90;2.55;;;;;;;26.93;18.40;98286.25;5019401;28;20080;-82
2022/02/11 07:12:04;;;;;;;4.72;2.58;;;;;;;26.95;18.21;98278.13;5004747;28;20034;-80
2022/02/11 07:14:30;;;;;;;3.35;2.10;;;;;;;27.10;17.97;98285.69;5013644;28;20026;-82
2022/02/11 07:16:56;;;;;;;6.30;2.78;;;;;;;27.48;17.68;98271.63;5003365;28;20069;-82
2022/02/11 07:19:22;;;;;;;5.68;2.60;;;;;;;27.75;17.31;98276.78;5014413;28;20041;-82
2022/02/11 07:21:48;;;;;;;3.80;2.53;;;;;;;27.97;17.14;98275.59;5016539;28;20062;-80
2022/02/11 07:24:14;;;;;;;4.68;2.67;;;;;;;28.14;16.98;98275.47;5006069;28;20548;-81
2022/02/11 07:26:41;;;;;;;8.95;3.60;;;;;;;28.32;17.05;98270.75;5004626;28;20034;-80
2022/02/11 07:29:07;;;;;;;8.35;3.67;;;;;;;28.46;17.12;98269.44;5012849;28;20034;-82
2022/02/11 07:31:33;;;;;;;9.05;4.72;;;;;;;28.44;17.15;98263.47;5015946;28;20485;-82
2022/02/11 07:34:00;;;;;;;9.07;4.25;;;;;;;28.29;17.42;98266.00;5004184;28;20497;-81
2022/02/11 07:36:26;;;;;;;4.63;3.00;;;;;;;28.22;17.30;98257.78;5009945;28;20022;-81
2022/02/11 07:38:52;;;;;;;5.72;2.78;;;;;;;28.14;17.36;98248.03;5018013;28;20030;-81
2022/02/11 07:41:18;;;;;;;4.88;3.08;;;;;;;28.08;17.95;98246.25;5010878;28;20031;-81
2022/02/11 07:43:48;;;;;;;4.72;2.40;;;;;;;27.99;17.77;98253.38;5013998;28;20418;-81
2022/02/11 07:46:14;;;;;;;3.33;2.17;;;;;;;27.29;18.42;98247.25;5010842;28;20398;-81
2022/02/11 07:48:40;;;;;;;5.57;3.05;;;;;;;27.04;18.21;98253.69;5011938;28;20026;-81
2022/02/11 07:51:06;;;;;;;3.95;2.75;;;;;;;26.79;18.73;98250.03;5005716;28;20454;-81
2022/02/11 07:53:37;;;;;;;4.43;2.75;;;;;;;26.39;19.16;98246.75;5006719;28;20084;-81
2022/02/11 07:56:04;;;;;;;;;;;;;;;26.97;18.50;98253.09;5005953;28;20037;-81
2022/02/11 07:58:30;;;;;;;3.88;2.78;;;;;;;27.20;18.12;98244.31;5010737;28;20543;-81
2022/02/11 08:01:00;;;;;;;5.13;3.45;;;;;;;26.77;18.75;98253.28;5009211;28;20037;-81
2022/02/11 08:03:27;;;;;;;5.65;2.72;;;;;;;26.45;18.91;98242.94;5011160;28;20034;-81
2022/02/11 08:05:53;;;;;;;4.70;2.45;;;;;;;26.44;19.29;98246.22;5019467;28;20551;-81
2022/02/11 08:08:23;;;;;;;6.97;3.67;;;;;;;26.79;18.87;98241.59;5009174;28;20046;-81
2022/02/11 08:10:49;;;;;;;6.97;3.30;;;;;;;27.23;18.53;98229.31;5004084;28;20033;-81
2022/02/11 08:13:15;;;;;;;11.63;4.60;;;;;;;27.49;17.90;98228.09;5006044;28;20109;-81
2022/02/11 08:15:41;;;;;;;8.57;4.20;;;;;;;26.89;18.24;98232.00;5021365;28;20029;-81
2022/02/11 08:18:07;;;;;;;6.47;3.28;;;;;;;26.85;18.67;98236.97;5016417;28;20483;-81
2022/02/11 08:20:33;;;;;;;9.85;4.78;;;;;;;26.71;18.37;98238.16;5030165;28;20082;-81
2022/02/11 08:22:59;;;;;;;9.13;4.57;;;;;;;25.90;19.14;98246.88;5017864;28;20040;-81
2022/02/11 08:25:25;;;;;;;9.38;4.07;;;;;;;26.43;19.01;98244.63;5013694;28;20548;-81
2022/02/11 08:27:54;;;;;;;8.80;4.75;;;;;;;26.80;18.62;98249.59;5009026;28;20065;-81
2022/02/11 08:30:20;;;;;;;9.10;3.85;;;;;;;27.12;17.77;98245.78;5016702;28;20500;-81
2022/02/11 08:32:47;;;;;;;7.30;4.22;;;;;;;27.22;17.86;98234.16;5007084;28;20639;-81
2022/02/11 08:35:13;;;;;;;7.30;4.18;;;;;;;27.08;17.90;98228.19;5005589;28;20041;-81
2022/02/11 08:37:39;;;;;;;7.88;4.43;;;;;;;26.47;18.20;98229.22;5008629;28;20029;-81
2022/02/11 08:40:06;;;;;;;6.97;4.70;;;;;;;26.51;18.71;98221.44;5002550;28;20026;-81
2022/02/11 08:42:32;;;;;;;8.90;5.25;;;;;;;26.30;18.63;98219.25;5008469;28;20033;-81
2022/02/11 08:44:58;;;;;;;7.85;4.13;;;;;;;26.09;18.73;98211.41;5014703;28;20034;-81
2022/02/11 08:47:24;;;;;;;7.88;4.75;;;;;;;26.21;18.85;98207.84;5007665;28;20027;-81
2022/02/11 08:49:50;;;;;;;7.15;3.65;;;;;;;26.19;18.80;98217.97;5004498;28;21854;-81
2022/02/11 08:52:16;;;;;;;6.65;4.15;;;;;;;26.59;18.68;98217.19;5005631;28;20042;-81
2022/02/11 08:54:42;;;;;;;6.70;4.10;;;;;;;26.66;18.00;98216.19;5005362;28;20070;-81
2022/02/11 08:57:09;;;;;;;7.10;3.78;;;;;;;26.63;18.33;98217.84;4998016;28;20034;-81
2022/02/11 08:59:35;;;;;;;7.13;4.10;;;;;;;26.70;18.09;98220.47;5007272;28;20030;-81
2022/02/11 09:02:05;;;;;;;6.07;3.03;;;;;;;27.11;17.81;98210.38;5009444;28;20489;-81
2022/02/11 09:04:31;;;;;;;7.13;4.00;;;;;;;27.12;17.54;98212.72;5005269;28;20475;-81
2022/02/11 09:06:57;;;;;;;6.65;3.63;;;;;;;27.21;18.10;98212.06;5003444;28;20290;-82
2022/02/11 09:09:23;;;;;;;5.55;2.72;;;;;;;27.44;17.96;98211.72;5006887;28;20033;-81
2022/02/11 09:11:49;;;;;;;4.97;3.22;;;;;;;27.58;17.58;98213.28;5005535;28;20092;-82
2022/02/11 09:14:15;;;;;;;7.38;4.10;;;;;;;27.77;17.45;98221.44;5008526;28;20544;-81
2022/02/11 09:16:41;;;;;;;8.43;4.13;;;;;;;27.82;16.91;98217.28;5004346;28;20026;-81
2022/02/11 09:19:09;;;;;;;5.05;3.03;;;;;;;27.66;17.21;98215.41;5005147;28;20076;-81
2022/02/11 09:21:36;;;;;;;14.23;6.53;;;;;;;27.99;17.42;98213.06;5008108;28;20137;-81
2022/02/11 09:24:02;;;;;;;8.00;3.60;;;;;;;28.20;16.94;98219.97;5008675;28;20048;-81
2022/02/11 09:26:28;;;;;;;6.90;3.17;;;;;;;28.26;17.12;98218.16;5006624;28;20030;-81
2022/02/11 09:28:54;;;;;;;5.18;3.28;;;;;;;28.38;17.07;98215.25;5010013;28;20571;-81
2022/02/11 09:31:26;;;;;;;6.32;3.28;;;;;;;28.34;16.93;98205.31;5000563;28;20042;-81
2022/02/11 09:34:03;;;;;;;4.22;3.30;;;;;;;28.45;17.06;98209.31;5005038;28;20049;-81
2022/02/11 09:36:30;;;;;;;6.75;3.85;;;;;;;28.59;17.07;98203.16;5008087;28;20494;-81
2022/02/11 09:38:56;;;;;;;7.20;3.63;;;;;;;28.84;16.57;98207.88;5008829;28;20089;-82
2022/02/11 09:41:25;;;;;;;32.40;11.15;;;;;;;29.06;16.68;98207.78;5023542;28;20030;-81
2022/02/11 09:43:53;;;;;;;20.02;9.18;;;;;;;29.19;16.05;98212.16;4998720;28;20463;-81
2022/02/11 09:46:19;;;;;;;17.25;8.80;;;;;;;29.27;16.07;98209.78;5025126;28;20029;-81
2022/02/11 09:48:46;;;;;;;13.43;5.75;;;;;;;29.12;16.37;98209.56;5010882;28;20025;-82
2022/02/11 09:51:12;;;;;;;12.02;5.60;;;;;;;29.15;16.59;98214.28;5012689;28;20087;-82
2022/02/11 09:53:39;;;;;;;16.70;7.05;;;;;;;28.91;16.30;98210.41;5033176;28;20040;-82
2022/02/11 09:56:05;;;;;;;16.60;7.22;;;;;;;28.78;16.33;98212.53;5014325;28;20034;-81
2022/02/11 09:58:33;;;;;;;12.15;5.78;;;;;;;28.58;16.58;98209.25;5005800;28;20510;-81
2022/02/11 10:00:59;;;;;;;11.07;5.20;;;;;;;28.36;16.50;98214.91;5012363;28;20109;-81
2022/02/11 10:03:29;;;;;;;12.73;5.95;;;;;;;28.58;16.75;98207.22;5014069;28;20516;-81
2022/02/11 10:06:03;;;;;;;17.35;5.68;;;;;;;28.39;16.60;98207.56;5003497;28;20034;-81
2022/02/11 10:08:33;;;;;;;11.43;5.88;;;;;;;28.11;16.54;98195.28;5010961;28;20046;-81
2022/02/11 10:11:00;;;;;;;9.38;4.80;;;;;;;27.73;16.84;98198.22;5004269;28;20073;-81
2022/02/11 10:13:33;;;;;;;8.95;4.15;;;;;;;27.32;17.73;98206.88;5021792;28;20525;-81
2022/02/11 10:16:08;;;;;;;13.30;4.97;;;;;;;25.90;17.83;98199.06;5009268;28;20022;-81
2022/02/11 10:18:36;;;;;;;8.65;3.40;;;;;;;25.84;18.20;98202.81;5006069;28;20026;-81
2022/02/11 10:21:07;;;;;;;5.63;3.20;;;;;;;26.35;18.36;98212.31;5000603;28;20462;-82
2022/02/11 10:23:40;;;;;;;6.05;3.30;;;;;;;26.34;17.88;98203.06;5005461;28;20044;-81
2022/02/11 10:26:15;;;;;;;10.52;4.28;;;;;;;26.20;17.85;98194.22;5008329;28;20038;-81
2022/02/11 10:28:55;;;;;;;5.38;3.40;;;;;;;26.34;17.71;98196.63;5017292;28;20033;-81
2022/02/11 10:31:24;;;;;;;8.23;4.25;;;;;;;25.93;18.00;98184.06;5014920;28;20429;-81
2022/02/11 10:34:11;;;;;;;10.65;5.13;;;;;;;25.53;17.85;98176.38;5009980;28;20061;-81
2022/02/11 10:36:39;;;;;;;9.13;3.60;;;;;;;25.31;18.21;98192.94;5006940;28;20113;-81
2022/02/11 10:39:12;;;;;;;8.65;3.42;;;;;;;25.26;17.99;98183.03;5012508;28;20121;-81
2022/02/11 10:41:49;;;;;;;8.90;3.30;;;;;;;25.23;17.79;98183.09;5008018;28;20034;-81
2022/02/11 10:44:17;;;;;;;16.02;6.80;;;;;;;25.55;17.93;98177.50;5008508;28;20040;-81
2022/02/11 10:46:49;;;;;;;12.57;5.03;;;;;;;25.60;18.15;98173.38;5004466;28;20050;-81
2022/02/11 10:49:18;;;;;;;12.00;5.20;;;;;;;25.43;18.13;98175.38;5006170;28;20026;-81
2022/02/11 10:51:47;;;;;;;13.70;6.03;;;;;;;25.43;18.20;98169.75;5007360;28;20050;-81
2022/02/11 10:54:30;;;;;;;19.27;8.00;;;;;;;24.91;17.93;98172.66;5002018;28;20041;-81
2022/02/11 10:56:59;;;;;;;12.55;5.10;;;;;;;24.74;18.34;98173.81;5013903;28;20035;-81
2022/02/11 10:59:33;;;;;;;8.38;3.47;;;;;;;25.10;18.49;98168.97;5005903;28;20060;-81
2022/02/11 11:02:04;;;;;;;6.97;3.33;;;;;;;25.39;18.03;98172.66;5015308;28;20034;-81
2022/02/11 11:04:31;;;;;;;4.95;2.83;;;;;;;24.35;18.99;98160.66;5007798;28;20118;-81
2022/02/11 11:06:58;;;;;;;6.60;2.70;;;;;;;25.08;18.13;98160.22;5008942;28;20037;-82
2022/02/11 11:09:28;;;;;;;7.07;3.58;;;;;;;25.25;17.64;98169.44;5011500;28;20034;-82
2022/02/11 11:11:55;;;;;;;5.03;3.28;;;;;;;25.92;17.49;98167.66;5015872;28;20438;-81
2022/02/11 11:14:26;;;;;;;8.95;3.03;;;;;;;25.82;17.22;98172.34;5012173;28;20517;-82
2022/02/11 11:16:55;;;;;;;4.65;2.22;;;;;;;25.33;17.77;98177.22;5011289;28;20053;-82
2022/02/11 11:19:23;;;;;;;7.75;3.13;;;;;;;25.56;18.14;98178.28;5004579;28;20031;-81
2022/02/11 11:22:11;;;;;;;7.55;2.92;;;;;;;25.11;18.06;98178.22;5011285;28;20022;-81
2022/02/11 11:24:57;;;;;;;11.10;5.35;;;;;;;24.94;17.96;98185.03;5009095;28;20034;-82
2022/02/11 11:27:41;;;;;;;9.65;3.10;;;;;;;24.72;18.05;98171.47;5011279;28;20030;-82
2022/02/11 11:30:28;;;;;;;9.73;3.40;;;;;;;24.93;17.56;98175.81;5003587;28;20614;-81
2022/02/11 11:33:09;;;;;;;6.55;3.90;;;;;;;24.36;18.43;98167.88;5000991;28;20045;-82
2022/02/11 11:35:40;;;;;;;5.38;2.13;;;;;;;25.42;17.42;98177.41;5016057;28;20169;-82
2022/02/11 11:38:20;;;;;;;;;;;;;;;25.60;17.22;98171.31;5014459;28;20083;-82
2022/02/11 11:41:09;;;;;;;7.43;2.55;;;;;;;26.29;17.05;98163.41;5005492;28;19983;-81
2022/02/11 11:43:37;;;;;;;7.55;3.17;;;;;;;26.79;16.78;98159.88;5024253;28;20049;-81
2022/02/11 11:46:25;;;;;;;5.18;2.50;;;;;;;26.86;16.46;98156.84;5004612;28;20038;-82
2022/02/11 11:49:01;;;;;;;4.80;2.05;;;;;;;27.38;16.27;98146.66;5012228;28;20049;-81
2022/02/11 11:51:35;;;;;;;5.03;2.47;;;;;;;27.44;16.11;98143.25;5001308;28;20046;-82
2022/02/11 11:54:22;;;;;;;3.72;1.63;;;;;;;27.43;15.79;98142.47;5007576;28;20042;-82
2022/02/11 11:57:07;;;;;;;7.50;4.10;;;;;;;27.55;16.05;98132.38;5006103;28;20550;-82
2022/02/11 11:59:50;;;;;;;7.50;3.45;;;;;;;27.50;16.05;98142.22;5009160;28;20038;-82
2022/02/11 12:02:24;;;;;;;9.98;4.15;;;;;;;27.17;16.16;98138.09;5006142;28;20026;-82
2022/02/11 12:04:52;;;;;;;5.63;2.75;;;;;;;27.05;16.07;98158.66;5013506;28;20622;-82
2022/02/11 12:07:30;;;;;;;9.90;2.65;;;;;;;25.71;16.87;98149.34;5008366;28;20498;-82
2022/02/11 12:09:58;;;;;;;4.38;2.30;;;;;;;25.97;16.62;98153.84;5008740;28;20394;-82
2022/02/11 12:12:29;;;;;;;6.32;2.80;;;;;;;26.43;16.67;98158.13;5013014;28;20030;-82
2022/02/11 12:14:59;;;;;;;;;;;;;;;26.07;16.32;98146.31;5008408;28;20061;-81
2022/02/11 12:17:26;;;;;;;6.53;2.08;;;;;;;26.14;17.02;98153.81;5014204;28;20010;-82
2022/02/11 12:19:54;;;;;;;6.78;2.05;;;;;;;26.39;16.56;98149.03;5005939;28;20029;-82
2022/02/11 12:22:23;;;;;;;6.32;2.50;;;;;;;25.81;16.80;98151.06;5007827;28;20036;-82
2022/02/11 12:27:39;;;;;;;3.45;2.08;;;;;;;25.81;17.15;98156.69;5010287;28;20068;-82
2022/02/11 12:30:14;;;;;;;5.85;3.33;;;;;;;25.67;17.18;98151.44;5000969;28;20491;-82
2022/02/11 12:32:52;;;;;;;4.93;2.40;;;;;;;25.19;17.67;98154.31;5007113;28;20026;-82
2022/02/11 12:35:30;;;;;;;7.45;2.38;;;;;;;25.86;17.16;98152.53;5006979;28;20050;-82
2022/02/11 12:37:59;;;;;;;7.18;3.15;;;;;;;26.31;16.62;98155.28;5009037;28;20040;-82
2022/02/11 12:40:28;;;;;;;6.25;2.70;;;;;;;25.47;17.37;98152.81;5004946;28;20042;-81
2022/02/11 12:42:58;;;;;;;4.90;2.80;;;;;;;25.63;16.90;98147.94;5006022;28;20030;-81
2022/02/11 12:45:32;;;;;;;4.82;2.80;;;;;;;25.39;17.40;98149.38;5014517;28;20037;-81
2022/02/11 12:47:59;;;;;;;5.18;2.60;;;;;;;24.76;17.61;98148.97;5006686;28;20084;-82
2022/02/11 12:50:34;;;;;;;6.22;2.92;;;;;;;23.05;19.13;98163.91;5008382;28;20037;-82
2022/02/11 12:53:03;;;;;;;3.65;2.25;;;;;;;23.38;19.38;98161.38;5007757;28;20077;-82
2022/02/11 12:55:32;;;;;;;5.55;3.05;;;;;;;23.99;18.28;98165.44;5004870;28;20381;-82
2022/02/11 12:58:01;;;;;;;3.78;2.03;;;;;;;23.07;19.29;98163.47;5004401;28;20494;-81
2022/02/11 13:00:32;;;;;;;3.88;1.95;;;;;;;24.86;18.37;98167.56;5007714;28;20037;-81
2022/02/11 13:03:01;;;;;;;5.32;2.45;;;;;;;25.19;17.24;98174.78;5010468;28;20030;-80
2022/02/11 13:05:29;;;;;;;4.75;2.35;;;;;;;24.98;17.77;98180.13;5005691;28;20524;-81
2022/02/11 13:08:00;;;;;;;5.10;2.08;;;;;;;23.23;19.22;98180.41;5002131;28;20026;-80
2022/02/11 13:10:31;;;;;;;3.17;1.83;;;;;;;22.05;21.77;98193.69;5002080;28;20025;-80
2022/02/11 13:12:57;;;;;;;4.72;2.20;;;;;;;21.62;22.40;98187.75;5005893;28;20050;-80
2022/02/11 13:15:28;;;;;;;3.67;2.20;;;;;;;21.55;23.02;98203.78;5008054;28;20540;-80
2022/02/11 13:18:04;;;;;;;6.57;2.20;;;;;;;20.73;24.04;98223.16;5015249;28;20109;-80
2022/02/11 13:20:36;;;;;;;2.83;1.90;;;;;;;19.84;25.45;98206.00;5010947;28;20034;-80
2022/02/11 13:23:03;;;;;;;2.88;1.92;;;;;;;20.61;24.76;98215.25;5013398;28;20045;-79
2022/02/11 13:25:32;;;;;;;5.05;2.90;;;;;;;20.98;24.50;98223.78;5023328;28;20018;-80
2022/02/11 13:28:08;;;;;;;2.53;1.63;;;;;;;21.72;23.73;98225.97;5016125;28;20087;-80
2022/02/11 13:30:36;;;;;;;4.90;1.92;;;;;;;20.85;24.61;98224.69;5014632;28;20049;-80
2022/02/11 13:33:32;;;;;;;4.60;2.28;;;;;;;20.14;26.06;98233.38;5007238;28;20105;-80
2022/02/11 13:36:01;;;;;;;3.45;2.35;;;;;;;20.21;26.36;98232.56;5013020;28;20034;-80
2022/02/11 13:38:47;;;;;;;2.70;1.90;;;;;;;21.88;24.18;98250.59;5004462;28;20040;-80
2022/02/11 13:41:15;;;;;;;5.30;2.55;;;;;;;20.99;25.35;98249.69;5006617;28;20060;-80
2022/02/11 13:44:01;;;;;;;5.07;3.10;;;;;;;20.81;25.94;98255.41;5006158;28;20034;-80
2022/02/11 13:46:35;;;;;;;4.18;2.53;;;;;;;20.83;25.51;98247.41;5002747;28;20037;-79
2022/02/11 13:49:10;;;;;;;4.13;2.67;;;;;;;20.80;26.16;98256.59;5006730;28;20069;-79
2022/02/11 13:51:37;;;;;;;6.68;3.42;;;;;;;20.44;26.58;98258.78;5001263;28;20065;-82
2022/02/11 13:54:17;;;;;;;5.55;3.30;;;;;;;20.50;26.57;98268.31;5008684;28;20026;-82
2022/02/11 13:56:46;;;;;;;4.82;3.25;;;;;;;21.34;25.22;98264.22;5003138;28;20033;-82
2022/02/11 13:59:23;;;;;;;4.50;2.78;;;;;;;21.46;25.16;98281.69;5007759;28;20101;-81
2022/02/11 14:01:50;;;;;;;3.90;2.33;;;;;;;22.07;24.10;98283.56;5001406;28;20026;-82
2022/02/11 14:04:22;;;;;;;4.32;2.70;;;;;;;21.36;24.96;98286.16;5007789;28;20564;-82
2022/02/11 14:06:52;;;;;;;6.68;3.30;;;;;;;21.67;24.75;98290.69;5001812;28;20088;-82
2022/02/11 14:09:38;;;;;;;4.15;2.40;;;;;;;21.19;25.55;98301.84;5007966;28;20026;-82
2022/02/11 14:12:06;;;;;;;3.80;2.25;;;;;;;22.34;23.95;98312.41;5013801;28;20502;-82
2022/02/11 14:14:34;;;;;;;3.42;2.08;;;;;;;21.27;25.47;98319.34;5002832;28;20045;-81
2022/02/11 14:17:02;;;;;;;4.18;1.80;;;;;;;20.89;26.31;98329.50;5010371;28;20026;-81
2022/02/11 14:19:29;;;;;;;6.00;2.60;;;;;;;21.20;25.63;98328.56;5010701;28;20091;-80
2022/02/11 14:21:59;;;;;;;3.13;2.05;;;;;;;19.64;27.67;98338.56;5007422;28;20529;-81
2022/02/11 14:24:27;;;;;;;6.07;3.53;;;;;;;18.21;30.66;98359.91;5013822;28;20124;-82
2022/02/11 14:26:54;;;;;;;7.45;4.00;;;;;;;19.22;29.23;98364.34;5019215;28;20038;-81
2022/02/11 14:29:20;;;;;;;4.10;3.38;;;;;;;18.97;29.45;98382.97;5006917;28;20033;-81
2022/02/11 14:31:48;;;;;;;5.57;3.67;;;;;;;17.47;31.60;98353.78;5006582;28;20026;-81
2022/02/11 14:34:15;;;;;;;3.88;2.67;;;;;;;17.25;32.13;98407.47;5009011;28;20037;-81
2022/02/11 14:36:43;;;;;;;4.63;3.15;;;;;;;17.26;31.94;98379.38;5010134;28;20144;-82
2022/02/11 14:39:14;;;;;;;4.53;3.00;;;;;;;16.50;33.60;98407.72;5009267;28;20089;-82
2022/02/11 14:41:48;;;;;;;5.20;3.40;;;;;;;17.09;32.88;98416.03;5001550;28;20394;-83
2022/02/11 14:44:17;;;;;;;4.25;3.05;;;;;;;17.40;31.64;98423.09;5013508;28;20044;-82
2022/02/11 14:46:44;;;;;;;4.78;3.10;;;;;;;18.29;30.20;98439.41;5003487;28;20038;-82
2022/02/11 14:49:10;;;;;;;3.58;2.58;;;;;;;16.83;31.98;98446.59;5011639;28;20109;-80
2022/02/11 14:51:37;;;;;;;5.15;3.03;;;;;;;16.90;31.96;98468.88;5013072;28;20047;-81
2022/02/11 14:54:08;;;;;;;3.35;2.75;;;;;;;15.01;35.01;98483.81;5019551;28;20508;-81
2022/02/11 14:56:35;;;;;;;4.22;3.17;;;;;;;16.19;33.16;98496.72;5012035;28;20058;-82
2022/02/11 14:59:01;;;;;;;4.03;2.35;;;;;;;16.15;32.42;98484.78;5006303;28;20506;-79
2022/02/11 15:01:27;;;;;;;3.67;2.30;;;;;;;16.05;32.47;98516.66;5005337;28;20038;-85
2022/02/11 15:03:54;;;;;;;3.40;2.10;;;;;;;16.35;32.19;98520.34;5008767;28;20038;-81
2022/02/11 15:06:20;;;;;;;2.85;1.90;;;;;;;16.23;31.65;98544.66;5003118;28;20054;-81
2022/02/11 15:08:47;;;;;;;3.38;1.98;;;;;;;16.15;32.01;98545.72;5004879;28;20057;-84
2022/02/11 15:11:13;;;;;;;3.30;1.80;;;;;;;16.00;32.08;98563.25;5008271;28;20045;-82
2022/02/11 15:13:40;;;;;;;3.90;2.70;;;;;;;15.49;33.20;98584.81;5006910;28;20088;-82
2022/02/11 15:16:06;;;;;;;3.58;2.40;;;;;;;15.24;33.67;98579.50;4993542;28;20421;-81
2022/02/11 15:18:33;;;;;;;3.25;2.13;;;;;;;14.87;34.21;98591.31;5008846;28;20022;-81
2022/02/11 15:21:05;;;;;;;3.22;2.22;;;;;;;14.85;33.76;98593.63;5007358;28;20076;-81
2022/02/11 15:23:36;;;;;;;3.60;2.17;;;;;;;13.79;35.34;98607.50;5007831;28;20038;-81
2022/02/11 15:26:06;;;;;;;;;;;;;;;13.94;34.20;98615.00;5020696;28;20490;-81
2022/02/11 15:28:34;;;;;;;3.80;1.63;;;;;;;14.19;33.95;98633.00;5006213;28;19921;-81